createdAt,value
2019-02-14T00:02:28.396Z,-2.40
2019-02-14T00:04:57.310Z,-2.50
2019-02-14T00:07:26.213Z,-2.50
2019-02-14T00:09:55.042Z,-2.60
2019-02-14T00:12:23.951Z,-2.60
2019-02-14T00:14:53.047Z,-2.60
2019-02-14T00:17:21.864Z,-2.60
2019-02-14T00:19:51.085Z,-2.70
2019-02-14T00:22:19.960Z,-2.70
2019-02-14T00:24:48.792Z,-2.70
2019-02-14T00:27:17.632Z,-2.70
2019-02-14T00:29:46.486Z,-2.70
2019-02-14T00:32:15.378Z,-2.70
2019-02-14T00:34:44.283Z,-2.70
2019-02-14T00:37:13.216Z,-2.70
2019-02-14T00:39:42.070Z,-2.70
2019-02-14T00:42:10.888Z,-2.60
2019-02-14T00:44:39.749Z,-2.60
2019-02-14T00:47:08.569Z,-2.60
2019-02-14T00:49:37.464Z,-2.60
2019-02-14T00:52:07.053Z,-2.60
2019-02-14T00:54:35.928Z,-2.60
2019-02-14T00:57:04.842Z,-2.60
2019-02-14T00:59:33.971Z,-2.50
2019-02-14T01:02:02.798Z,-2.50
2019-02-14T01:04:31.719Z,-2.50
2019-02-14T01:07:00.704Z,-2.50
2019-02-14T01:09:29.532Z,-2.50
2019-02-14T01:11:58.421Z,-2.50
2019-02-14T01:14:27.341Z,-2.50
2019-02-14T01:16:56.444Z,-2.50
2019-02-14T01:19:25.281Z,-2.50
2019-02-14T01:21:54.118Z,-2.50
2019-02-14T01:24:22.943Z,-2.50
2019-02-14T01:26:52.044Z,-2.50
2019-02-14T01:29:20.955Z,-2.50
2019-02-14T01:31:49.808Z,-2.50
2019-02-14T01:34:18.736Z,-2.60
2019-02-14T01:36:47.585Z,-2.60
2019-02-14T01:39:16.407Z,-2.60
2019-02-14T01:41:45.326Z,-2.70
2019-02-14T01:44:14.234Z,-2.70
2019-02-14T01:46:43.125Z,-2.70
2019-02-14T01:49:12.126Z,-2.70
2019-02-14T01:51:41.055Z,-2.80
2019-02-14T01:54:09.956Z,-2.70
2019-02-14T01:56:38.821Z,-2.80
2019-02-14T01:59:07.756Z,-2.70
2019-02-14T02:01:36.607Z,-2.70
2019-02-14T02:04:05.418Z,-2.70
2019-02-14T02:06:34.238Z,-2.60
2019-02-14T02:09:04.991Z,-2.70
2019-02-14T02:11:34.002Z,-2.60
2019-02-14T02:14:02.968Z,-2.60
2019-02-14T02:16:31.783Z,-2.60
2019-02-14T02:19:00.920Z,-2.50
2019-02-14T02:21:30.065Z,-2.60
2019-02-14T02:23:59.262Z,-2.60
2019-02-14T02:26:28.371Z,-2.60
2019-02-14T02:28:57.196Z,-2.60
2019-02-14T02:31:26.015Z,-2.60
2019-02-14T02:33:54.832Z,-2.60
2019-02-14T02:36:23.735Z,-2.60
2019-02-14T02:38:52.579Z,-2.70
2019-02-14T02:41:21.465Z,-2.70
2019-02-14T02:43:50.322Z,-2.70
2019-02-14T02:46:19.176Z,-2.80
2019-02-14T02:48:48.081Z,-2.80
2019-02-14T02:51:17.276Z,-2.80
2019-02-14T02:53:46.124Z,-2.80
2019-02-14T02:56:15.068Z,-2.90
2019-02-14T02:58:44.057Z,-2.90
2019-02-14T03:01:12.909Z,-2.90
2019-02-14T03:03:41.731Z,-2.90
2019-02-14T03:06:11.086Z,-2.90
2019-02-14T03:08:40.037Z,-2.90
2019-02-14T03:11:08.918Z,-3.00
2019-02-14T03:13:38.118Z,-3.00
2019-02-14T03:16:06.983Z,-3.00
2019-02-14T03:18:35.866Z,-3.10
2019-02-14T03:21:04.777Z,-3.10
2019-02-14T03:23:33.687Z,-3.10
2019-02-14T03:26:02.641Z,-3.10
2019-02-14T03:28:31.548Z,-3.20
2019-02-14T03:31:00.426Z,-3.20
2019-02-14T03:33:29.322Z,-3.20
2019-02-14T03:35:58.170Z,-3.30
2019-02-14T03:38:26.989Z,-3.20
2019-02-14T03:40:55.821Z,-3.20
2019-02-14T03:43:24.932Z,-3.30
2019-02-14T03:45:53.770Z,-3.30
2019-02-14T03:48:22.659Z,-3.30
2019-02-14T03:50:51.611Z,-3.30
2019-02-14T03:53:20.512Z,-3.40
2019-02-14T03:55:49.759Z,-3.40
2019-02-14T03:58:18.677Z,-3.40
2019-02-14T04:00:47.504Z,-3.40
2019-02-14T04:03:16.417Z,-3.50
2019-02-14T04:05:45.336Z,-3.50
2019-02-14T04:08:14.183Z,-3.50
2019-02-14T04:10:43.158Z,-3.50
2019-02-14T04:13:12.146Z,-3.50
2019-02-14T04:15:41.041Z,-3.60
2019-02-14T04:18:09.888Z,-3.60
2019-02-14T04:20:38.832Z,-3.60
2019-02-14T04:23:07.656Z,-3.60
2019-02-14T04:25:36.739Z,-3.60
2019-02-14T04:28:05.659Z,-3.60
2019-02-14T04:30:34.561Z,-3.70
2019-02-14T04:33:03.641Z,-3.70
2019-02-14T04:35:32.461Z,-3.70
2019-02-14T04:38:01.631Z,-3.70
2019-02-14T04:40:33.588Z,-3.70
2019-02-14T04:43:01.023Z,-3.70
2019-02-14T04:45:29.911Z,-3.70
2019-02-14T04:47:58.765Z,-3.70
2019-02-14T04:50:27.588Z,-3.80
2019-02-14T04:52:56.464Z,-3.80
2019-02-14T04:55:25.304Z,-3.80
2019-02-14T04:57:54.180Z,-3.90
2019-02-14T05:00:23.100Z,-3.90
2019-02-14T05:02:52.236Z,-3.90
2019-02-14T05:05:21.046Z,-3.90
2019-02-14T05:07:49.891Z,-4.00
2019-02-14T05:10:18.707Z,-4.00
2019-02-14T05:12:47.842Z,-4.10
2019-02-14T05:15:16.929Z,-4.10
2019-02-14T05:17:46.005Z,-4.10
2019-02-14T05:20:14.877Z,-4.10
2019-02-14T05:22:43.705Z,-4.10
2019-02-14T05:25:12.683Z,-4.10
2019-02-14T05:27:41.571Z,-4.10
2019-02-14T05:30:11.830Z,-4.20
2019-02-14T05:32:41.139Z,-4.20
2019-02-14T05:35:10.198Z,-4.20
2019-02-14T05:37:39.112Z,-4.20
2019-02-14T05:40:08.975Z,-4.30
2019-02-14T05:42:37.883Z,-4.20
2019-02-14T05:45:07.650Z,-4.30
2019-02-14T05:47:36.555Z,-4.30
2019-02-14T05:50:05.914Z,-4.30
2019-02-14T05:52:35.171Z,-4.30
2019-02-14T05:55:04.272Z,-4.40
2019-02-14T05:57:33.143Z,-4.40
2019-02-14T06:00:01.957Z,-4.40
2019-02-14T06:02:32.238Z,-4.40
2019-02-14T06:05:01.242Z,-4.40
2019-02-14T06:07:30.049Z,-4.50
2019-02-14T06:09:58.923Z,-4.50
2019-02-14T06:12:27.722Z,-4.50
2019-02-14T06:14:56.515Z,-4.50
2019-02-14T06:17:25.306Z,-4.50
2019-02-14T06:19:54.112Z,-4.50
2019-02-14T06:22:22.925Z,-4.60
2019-02-14T06:24:51.954Z,-4.60
2019-02-14T06:27:20.989Z,-4.60
2019-02-14T06:29:50.032Z,-4.60
2019-02-14T06:32:18.818Z,-4.60
2019-02-14T06:34:47.631Z,-4.70
2019-02-14T06:37:16.441Z,-4.70
2019-02-14T06:39:45.293Z,-4.70
2019-02-14T06:42:14.429Z,-4.60
2019-02-14T06:44:43.361Z,-4.60
2019-02-14T06:47:12.517Z,-4.60
2019-02-14T06:49:41.429Z,-4.70
2019-02-14T06:52:16.685Z,-4.60
2019-02-14T06:54:45.498Z,-4.70
2019-02-14T06:57:14.549Z,-4.60
2019-02-14T06:59:43.413Z,-4.60
2019-02-14T07:02:12.698Z,-4.60
2019-02-14T07:04:41.801Z,-4.60
2019-02-14T07:07:18.175Z,-4.50
2019-02-14T07:09:41.565Z,-4.50
2019-02-14T07:12:10.384Z,-4.50
2019-02-14T07:14:39.193Z,-4.50
2019-02-14T07:17:08.051Z,-4.50
2019-02-14T07:19:36.864Z,-4.40
2019-02-14T07:22:05.665Z,-4.40
2019-02-14T07:24:34.817Z,-4.30
2019-02-14T07:27:03.703Z,-4.30
2019-02-14T07:29:32.565Z,-4.30
2019-02-14T07:32:01.381Z,-4.30
2019-02-14T07:34:30.157Z,-4.30
2019-02-14T07:36:59.053Z,-4.20
2019-02-14T07:39:28.122Z,-4.20
2019-02-14T07:41:56.942Z,-4.10
2019-02-14T07:44:25.873Z,-4.10
2019-02-14T07:46:54.714Z,-4.10
2019-02-14T07:49:23.613Z,-4.10
2019-02-14T07:51:52.451Z,-4.00
2019-02-14T07:54:21.307Z,-4.00
2019-02-14T07:56:52.447Z,-4.00
2019-02-14T07:59:21.142Z,-3.90
2019-02-14T08:01:49.983Z,-3.80
2019-02-14T08:04:18.817Z,-3.70
2019-02-14T08:06:47.585Z,-3.70
2019-02-14T08:09:16.846Z,-3.60
2019-02-14T08:11:45.837Z,-3.50
2019-02-14T08:14:14.793Z,-3.40
2019-02-14T08:16:44.259Z,-3.40
2019-02-14T08:19:13.043Z,-3.30
2019-02-14T08:21:41.825Z,-3.20
2019-02-14T08:24:10.735Z,-3.10
2019-02-14T08:26:39.519Z,-2.90
2019-02-14T08:29:08.320Z,-2.80
2019-02-14T08:31:37.381Z,-2.70
2019-02-14T08:34:06.177Z,-2.60
2019-02-14T08:36:35.475Z,-2.50
2019-02-14T08:39:05.611Z,-2.50
2019-02-14T08:41:34.535Z,-2.40
2019-02-14T08:44:03.356Z,-2.30
2019-02-14T08:46:32.146Z,-2.20
2019-02-14T08:49:00.970Z,-2.10
2019-02-14T08:51:29.775Z,-1.90
2019-02-14T08:53:58.614Z,-1.80
2019-02-14T08:56:27.521Z,-1.60
2019-02-14T08:58:56.317Z,-1.50
2019-02-14T09:01:25.526Z,-1.20
2019-02-14T09:03:54.398Z,-1.10
2019-02-14T09:06:23.211Z,-0.90
2019-02-14T09:08:52.025Z,-0.60
2019-02-14T09:11:21.012Z,-0.20
2019-02-14T09:13:50.383Z,0.10
2019-02-14T09:16:19.489Z,0.20
2019-02-14T09:18:48.281Z,0.20
2019-02-14T09:21:17.170Z,0.30
2019-02-14T09:23:45.966Z,0.50
2019-02-14T09:26:14.800Z,0.60
2019-02-14T09:28:43.902Z,0.70
2019-02-14T09:31:12.777Z,1.30
2019-02-14T09:33:41.549Z,1.90
2019-02-14T09:36:10.347Z,3.20
2019-02-14T09:38:39.118Z,4.90
2019-02-14T09:41:07.967Z,6.30
2019-02-14T09:43:36.735Z,8.20
2019-02-14T09:46:05.614Z,9.20
2019-02-14T09:48:34.394Z,10.20
2019-02-14T09:51:03.177Z,11.40
2019-02-14T09:53:32.037Z,12.70
2019-02-14T09:56:01.062Z,14.00
2019-02-14T09:58:29.931Z,15.10
2019-02-14T10:00:58.857Z,16.40
2019-02-14T10:03:27.633Z,17.30
2019-02-14T10:05:56.725Z,17.80
2019-02-14T10:08:25.510Z,17.80
2019-02-14T10:10:54.385Z,16.90
2019-02-14T10:13:23.165Z,16.50
2019-02-14T10:15:51.997Z,15.70
2019-02-14T10:18:21.086Z,14.90
2019-02-14T10:20:50.188Z,14.00
2019-02-14T10:23:18.962Z,14.00
2019-02-14T10:25:47.746Z,14.40
2019-02-14T10:28:16.525Z,14.80
2019-02-14T10:30:45.641Z,15.70
2019-02-14T10:33:14.422Z,16.60
2019-02-14T10:35:43.569Z,16.90
2019-02-14T10:38:21.679Z,16.90
2019-02-14T10:40:43.070Z,17.30
2019-02-14T10:43:11.873Z,17.10
2019-02-14T10:45:40.644Z,17.20
2019-02-14T10:48:09.401Z,17.50
2019-02-14T10:50:38.278Z,18.30
2019-02-14T10:53:07.050Z,17.70
2019-02-14T10:55:35.923Z,17.50
2019-02-14T10:58:04.762Z,18.00
2019-02-14T11:00:33.705Z,18.10
2019-02-14T11:03:02.512Z,18.30
2019-02-14T11:05:31.369Z,19.20
2019-02-14T11:08:00.147Z,19.70
2019-02-14T11:10:28.925Z,19.70
2019-02-14T11:12:57.759Z,21.00
2019-02-14T11:15:26.997Z,20.60
2019-02-14T11:17:55.836Z,20.70
2019-02-14T11:20:24.686Z,20.40
2019-02-14T11:22:53.554Z,19.80
2019-02-14T11:25:28.133Z,17.20
2019-02-14T11:27:57.154Z,15.30
2019-02-14T11:30:26.359Z,14.40
2019-02-14T11:32:55.245Z,14.20
2019-02-14T11:35:24.111Z,14.40
2019-02-14T11:37:52.986Z,14.40
2019-02-14T11:40:21.884Z,14.50
2019-02-14T11:42:50.737Z,14.10
2019-02-14T11:45:20.037Z,13.80
2019-02-14T11:47:49.118Z,13.40
2019-02-14T11:50:17.901Z,12.70
2019-02-14T11:52:46.778Z,12.70
2019-02-14T11:55:16.931Z,12.70
2019-02-14T11:57:45.895Z,12.70
2019-02-14T12:00:19.920Z,12.70
2019-02-14T12:02:55.142Z,12.50
2019-02-14T12:05:19.302Z,12.20
2019-02-14T12:07:48.206Z,11.90
2019-02-14T12:10:17.345Z,12.00
2019-02-14T12:12:46.222Z,12.00
2019-02-14T12:15:15.264Z,12.10
2019-02-14T12:17:44.042Z,12.00
2019-02-14T12:20:13.133Z,11.90
2019-02-14T12:22:46.799Z,11.80
2019-02-14T12:25:13.535Z,11.40
2019-02-14T12:27:42.566Z,11.30
2019-02-14T12:30:12.966Z,11.20
2019-02-14T12:32:42.129Z,11.30
2019-02-14T12:35:11.112Z,11.50
2019-02-14T12:37:39.987Z,11.80
2019-02-14T12:40:10.380Z,11.80
2019-02-14T12:42:39.204Z,11.80
2019-02-14T12:45:20.386Z,11.70
2019-02-14T12:47:43.481Z,11.60
2019-02-14T12:50:12.354Z,11.50
2019-02-14T12:52:41.213Z,11.40
2019-02-14T12:55:10.128Z,11.20
2019-02-14T12:57:38.915Z,11.10
2019-02-14T13:00:11.493Z,10.90
2019-02-14T13:02:40.282Z,10.60
2019-02-14T13:05:09.303Z,10.20
2019-02-14T13:07:38.100Z,10.00
2019-02-14T13:10:08.322Z,9.60
2019-02-14T13:12:37.091Z,9.30
2019-02-14T13:15:07.661Z,9.10
2019-02-14T13:17:36.509Z,8.80
2019-02-14T13:20:05.542Z,8.60
2019-02-14T13:22:34.530Z,8.50
2019-02-14T13:25:03.372Z,8.70
2019-02-14T13:27:32.205Z,8.80
2019-02-14T13:30:01.065Z,8.70
2019-02-14T13:32:29.949Z,8.50
2019-02-14T13:34:58.800Z,8.30
2019-02-14T13:37:27.665Z,8.10
2019-02-14T13:39:56.429Z,7.90
2019-02-14T13:42:25.293Z,8.10
2019-02-14T13:44:54.081Z,8.20
2019-02-14T13:47:23.207Z,8.30
2019-02-14T13:49:51.970Z,8.30
2019-02-14T13:52:20.745Z,8.30
2019-02-14T13:54:49.501Z,8.80
2019-02-14T13:57:18.348Z,9.40
2019-02-14T13:59:47.181Z,9.80
2019-02-14T14:02:16.348Z,10.20
2019-02-14T14:04:45.113Z,10.40
2019-02-14T14:07:14.549Z,10.60
2019-02-14T14:09:43.319Z,10.90
2019-02-14T14:12:12.185Z,10.80
2019-02-14T14:14:40.953Z,10.80
2019-02-14T14:17:10.076Z,10.90
2019-02-14T14:19:38.857Z,11.00
2019-02-14T14:22:07.973Z,11.20
2019-02-14T14:24:36.742Z,11.20
2019-02-14T14:27:06.034Z,11.20
2019-02-14T14:29:34.857Z,11.10
2019-02-14T14:32:03.612Z,11.10
2019-02-14T14:34:32.378Z,11.10
2019-02-14T14:37:01.165Z,11.00
2019-02-14T14:39:29.943Z,10.70
2019-02-14T14:41:58.979Z,10.50
2019-02-14T14:44:35.290Z,10.30
2019-02-14T14:47:10.971Z,10.00
2019-02-14T14:49:39.793Z,9.80
2019-02-14T14:52:09.023Z,9.60
2019-02-14T14:54:37.818Z,9.40
2019-02-14T14:57:06.602Z,9.30
2019-02-14T14:59:35.449Z,9.20
2019-02-14T15:02:04.369Z,8.90
2019-02-14T15:04:33.433Z,8.70
2019-02-14T15:07:02.194Z,8.50
2019-02-14T15:09:30.973Z,8.30
2019-02-14T15:11:59.755Z,8.20
2019-02-14T15:14:28.529Z,8.00
2019-02-14T15:16:57.297Z,7.80
2019-02-14T15:19:26.082Z,7.60
2019-02-14T15:21:55.865Z,7.40
2019-02-14T15:24:24.649Z,7.20
2019-02-14T15:26:53.403Z,7.00
2019-02-14T15:29:31.355Z,6.90
2019-02-14T15:32:00.116Z,6.70
2019-02-14T15:34:28.890Z,6.50
2019-02-14T15:36:57.661Z,6.30
2019-02-14T15:39:26.429Z,6.10
2019-02-14T15:41:56.155Z,5.90
2019-02-14T15:44:25.103Z,5.70
2019-02-14T15:46:53.892Z,5.40
2019-02-14T15:49:23.153Z,5.30
2019-02-14T15:51:53.157Z,5.10
2019-02-14T15:54:21.929Z,4.90
2019-02-14T15:56:51.484Z,4.70
2019-02-14T15:59:21.192Z,4.50
2019-02-14T16:01:49.956Z,4.30
2019-02-14T16:04:18.810Z,4.20
2019-02-14T16:06:47.585Z,4.00
2019-02-14T16:09:16.660Z,3.80
2019-02-14T16:11:45.527Z,3.60
2019-02-14T16:14:16.347Z,3.40
2019-02-14T16:16:45.319Z,3.30
2019-02-14T16:19:15.307Z,3.20
2019-02-14T16:21:44.078Z,3.00
2019-02-14T16:24:14.413Z,2.90
2019-02-14T16:26:43.366Z,2.80
2019-02-14T16:29:12.421Z,2.70
2019-02-14T16:31:41.282Z,2.50
2019-02-14T16:34:10.065Z,2.40
2019-02-14T16:36:38.990Z,2.30
2019-02-14T16:39:07.890Z,2.20
2019-02-14T16:41:36.858Z,2.10
2019-02-14T16:44:05.677Z,2.00
2019-02-14T16:46:34.433Z,1.90
2019-02-14T16:49:03.198Z,1.80
2019-02-14T16:51:31.962Z,1.70
2019-02-14T16:54:00.807Z,1.60
2019-02-14T16:56:33.129Z,1.50
2019-02-14T16:59:02.266Z,1.40
2019-02-14T17:01:31.112Z,1.30
2019-02-14T17:03:59.877Z,1.20
2019-02-14T17:06:28.637Z,1.10
2019-02-14T17:08:57.417Z,1.10
2019-02-14T17:11:26.262Z,1.00
2019-02-14T17:13:56.914Z,0.90
2019-02-14T17:16:25.533Z,0.80
2019-02-14T17:18:54.309Z,0.70
2019-02-14T17:21:23.112Z,0.70
2019-02-14T17:23:51.880Z,0.60
2019-02-14T17:26:20.673Z,0.50
2019-02-14T17:28:49.564Z,0.50
2019-02-14T17:31:18.377Z,0.40
2019-02-14T17:33:47.137Z,0.30
2019-02-14T17:36:16.373Z,0.30
2019-02-14T17:38:45.156Z,0.20
2019-02-14T17:41:14.177Z,0.10
2019-02-14T17:43:42.949Z,0.10
2019-02-14T17:46:11.729Z,0.00
2019-02-14T17:48:40.498Z,0.00
2019-02-14T17:51:09.829Z,-0.10
2019-02-14T17:53:38.686Z,-0.10
2019-02-14T17:56:09.573Z,-0.20
2019-02-14T17:58:38.706Z,-0.30
2019-02-14T18:01:07.486Z,-0.30
2019-02-14T18:03:36.272Z,-0.40
2019-02-14T18:06:05.065Z,-0.40
2019-02-14T18:08:33.843Z,-0.40
2019-02-14T18:11:02.932Z,-0.50
2019-02-14T18:13:31.715Z,-0.50
2019-02-14T18:16:00.550Z,-0.60
2019-02-14T18:18:29.486Z,-0.60
2019-02-14T18:20:58.303Z,-0.60
2019-02-14T18:23:27.107Z,-0.70
2019-02-14T18:25:55.961Z,-0.70
2019-02-14T18:28:24.917Z,-0.70
2019-02-14T18:30:55.228Z,-0.80
2019-02-14T18:33:24.250Z,-0.80
2019-02-14T18:35:53.166Z,-0.80
2019-02-14T18:38:22.023Z,-0.90
2019-02-14T18:40:51.163Z,-0.90
2019-02-14T18:43:19.986Z,-1.00
2019-02-14T18:45:48.810Z,-1.00
2019-02-14T18:48:17.639Z,-1.10
2019-02-14T18:50:46.826Z,-1.10
2019-02-14T18:53:15.724Z,-1.10
2019-02-14T18:55:44.590Z,-1.10
2019-02-14T18:58:13.456Z,-1.20
2019-02-14T19:00:42.254Z,-1.20
2019-02-14T19:03:11.063Z,-1.20
2019-02-14T19:05:39.914Z,-1.20
2019-02-14T19:08:08.762Z,-1.20
2019-02-14T19:10:37.598Z,-1.30
2019-02-14T19:13:06.846Z,-1.30
2019-02-14T19:15:35.859Z,-1.30
2019-02-14T19:18:04.805Z,-1.30
2019-02-14T19:20:33.878Z,-1.30
2019-02-14T19:23:02.719Z,-1.40
2019-02-14T19:25:31.855Z,-1.40
2019-02-14T19:28:00.650Z,-1.40
2019-02-14T19:30:29.447Z,-1.50
2019-02-14T19:32:58.231Z,-1.50
2019-02-14T19:35:27.014Z,-1.50
2019-02-14T19:37:55.818Z,-1.50
2019-02-14T19:40:26.698Z,-1.50
2019-02-14T19:42:55.581Z,-1.50
2019-02-14T19:45:24.437Z,-1.60
2019-02-14T19:47:53.265Z,-1.60
2019-02-14T19:50:22.070Z,-1.60
2019-02-14T19:52:50.901Z,-1.60
2019-02-14T19:55:19.803Z,-1.70
2019-02-14T19:57:49.064Z,-1.70
2019-02-14T20:00:17.939Z,-1.70
2019-02-14T20:02:46.725Z,-1.70
2019-02-14T20:05:15.622Z,-1.70
2019-02-14T20:07:44.503Z,-1.80
2019-02-14T20:10:13.796Z,-1.80
2019-02-14T20:12:42.800Z,-1.80
2019-02-14T20:15:13.324Z,-1.90
2019-02-14T20:17:42.193Z,-1.90
2019-02-14T20:20:11.767Z,-1.90
2019-02-14T20:22:40.573Z,-1.90
2019-02-14T20:25:11.044Z,-1.90
2019-02-14T20:27:39.843Z,-2.00
2019-02-14T20:30:09.035Z,-2.00
2019-02-14T20:32:37.817Z,-2.00
2019-02-14T20:35:06.721Z,-2.00
2019-02-14T20:37:35.681Z,-2.00
2019-02-14T20:40:06.325Z,-2.00
2019-02-14T20:42:35.253Z,-2.10
2019-02-14T20:45:04.723Z,-2.10
2019-02-14T20:47:33.516Z,-2.10
2019-02-14T20:50:02.285Z,-2.10
2019-02-14T20:52:31.066Z,-2.10
2019-02-14T20:55:00.485Z,-2.10
2019-02-14T20:57:29.360Z,-2.10
2019-02-14T20:59:58.145Z,-2.20
2019-02-14T21:02:27.070Z,-2.20
2019-02-14T21:04:55.833Z,-2.20
2019-02-14T21:07:24.622Z,-2.20
2019-02-14T21:09:53.406Z,-2.30
2019-02-14T21:12:22.194Z,-2.30
2019-02-14T21:14:51.270Z,-2.30
2019-02-14T21:17:20.445Z,-2.30
2019-02-14T21:19:49.209Z,-2.40
2019-02-14T21:22:18.812Z,-2.40
2019-02-14T21:24:47.742Z,-2.40
2019-02-14T21:27:16.542Z,-2.50
2019-02-14T21:29:45.406Z,-2.50
2019-02-14T21:32:14.261Z,-2.50
2019-02-14T21:34:43.023Z,-2.50
2019-02-14T21:37:13.929Z,-2.60
2019-02-14T21:39:42.621Z,-2.60
2019-02-14T21:42:20.714Z,-2.60
2019-02-14T21:44:42.289Z,-2.60
2019-02-14T21:47:11.575Z,-2.60
2019-02-14T21:49:40.349Z,-2.70
2019-02-14T21:52:09.234Z,-2.70
2019-02-14T21:54:38.500Z,-2.70
2019-02-14T21:57:07.475Z,-2.70
2019-02-14T21:59:36.235Z,-2.70
2019-02-14T22:02:06.663Z,-2.70
2019-02-14T22:04:35.852Z,-2.70
2019-02-14T22:07:04.995Z,-2.70
2019-02-14T22:09:33.833Z,-2.70
2019-02-14T22:12:02.691Z,-2.70
2019-02-14T22:14:31.499Z,-2.80
2019-02-14T22:17:00.278Z,-2.80
2019-02-14T22:19:29.053Z,-2.80
2019-02-14T22:21:57.834Z,-2.80
2019-02-14T22:24:26.621Z,-2.80
2019-02-14T22:26:55.391Z,-2.80
2019-02-14T22:29:24.634Z,-2.80
2019-02-14T22:31:53.536Z,-2.80
2019-02-14T22:34:22.391Z,-2.80
2019-02-14T22:36:51.170Z,-2.90
2019-02-14T22:39:20.040Z,-2.90
2019-02-14T22:41:48.898Z,-2.90
2019-02-14T22:44:17.969Z,-2.90
2019-02-14T22:46:46.741Z,-2.90
2019-02-14T22:49:15.614Z,-2.90
2019-02-14T22:51:44.672Z,-3.00
2019-02-14T22:54:13.449Z,-3.00
2019-02-14T22:56:42.539Z,-3.00
2019-02-14T22:59:11.326Z,-3.00
2019-02-14T23:01:41.665Z,-3.00
2019-02-14T23:04:10.432Z,-3.00
2019-02-14T23:06:39.209Z,-3.00
2019-02-14T23:09:10.054Z,-0.30
2019-02-14T23:11:38.901Z,-0.40
2019-02-14T23:14:07.697Z,-0.50
2019-02-14T23:16:36.488Z,-0.60
2019-02-14T23:19:05.279Z,-0.70
2019-02-14T23:21:34.055Z,-0.80
2019-02-14T23:24:02.861Z,-0.90
2019-02-14T23:26:31.665Z,-1.00
2019-02-14T23:29:00.449Z,-1.10
2019-02-14T23:31:29.570Z,-1.20
2019-02-14T23:33:58.346Z,-1.30
2019-02-14T23:36:27.290Z,-1.40
2019-02-14T23:38:56.086Z,-1.50
2019-02-14T23:41:24.870Z,-1.60
2019-02-14T23:43:53.663Z,-1.60
2019-02-14T23:46:22.454Z,-1.80
2019-02-14T23:48:51.250Z,-1.90
2019-02-14T23:51:20.089Z,-2.00
2019-02-14T23:53:48.888Z,-2.10
2019-02-14T23:56:17.738Z,-2.10
2019-02-14T23:58:46.527Z,-2.20
